createdAt,value
2023-02-20T00:00:59.806Z,101739.09
2023-02-20T00:03:26.352Z,101730.50
2023-02-20T00:05:52.868Z,101733.13
2023-02-20T00:08:19.794Z,101728.81
2023-02-20T00:10:46.381Z,101716.72
2023-02-20T00:13:12.911Z,101712.44
2023-02-20T00:15:39.559Z,101701.19
2023-02-20T00:18:07.011Z,101703.84
2023-02-20T00:20:33.571Z,101695.19
2023-02-20T00:23:00.133Z,101692.59
2023-02-20T00:25:26.603Z,101669.22
2023-02-20T00:27:53.075Z,101658.84
2023-02-20T00:30:21.573Z,101651.06
2023-02-20T00:32:48.454Z,101638.97
2023-02-20T00:35:15.307Z,101627.69
2023-02-20T00:37:41.920Z,101622.50
2023-02-20T00:40:09.459Z,101621.59
2023-02-20T00:42:35.882Z,101607.72
2023-02-20T00:45:02.291Z,101603.41
2023-02-20T00:47:28.929Z,101594.69
2023-02-20T00:49:56.389Z,101595.53
2023-02-20T00:52:22.866Z,101594.63
2023-02-20T00:54:49.694Z,101585.09
2023-02-20T00:57:16.127Z,101574.72
2023-02-20T00:59:43.897Z,101567.81
2023-02-20T01:02:10.708Z,101575.63
2023-02-20T01:04:37.408Z,101576.50
2023-02-20T01:07:03.907Z,101582.56
2023-02-20T01:09:31.582Z,101579.97
2023-02-20T01:11:57.983Z,101593.88
2023-02-20T01:14:25.297Z,101574.88
2023-02-20T01:16:53.217Z,101572.28
2023-02-20T01:19:22.308Z,101579.25
2023-02-20T01:21:49.000Z,101572.34
2023-02-20T01:24:15.851Z,101568.91
2023-02-20T01:26:42.768Z,101566.38
2023-02-20T01:29:09.289Z,101566.38
2023-02-20T01:31:35.801Z,101557.78
2023-02-20T01:34:03.675Z,101554.34
2023-02-20T01:36:30.178Z,101534.44
2023-02-20T01:38:56.668Z,101535.34
2023-02-20T01:41:24.690Z,101541.44
2023-02-20T01:43:51.122Z,101531.94
2023-02-20T01:46:44.029Z,101536.31
2023-02-20T01:49:11.753Z,101518.19
2023-02-20T01:51:41.129Z,101502.63
2023-02-20T01:54:09.183Z,101499.19
2023-02-20T01:56:35.996Z,101489.69
2023-02-20T01:59:03.365Z,101470.66
2023-02-20T02:01:30.045Z,101460.28
2023-02-20T02:04:00.265Z,101449.03
2023-02-20T02:06:28.473Z,101448.19
2023-02-20T02:08:57.139Z,101451.66
2023-02-20T02:11:24.955Z,101456.84
2023-02-20T02:13:51.592Z,101449.97
2023-02-20T02:16:42.387Z,101449.09
2023-02-20T02:19:09.079Z,101447.38
2023-02-20T02:21:41.568Z,101435.28
2023-02-20T02:24:31.849Z,101440.50
2023-02-20T02:26:58.305Z,101444.00
2023-02-20T02:29:34.039Z,101439.66
2023-02-20T02:32:19.514Z,101437.97
2023-02-20T02:34:55.033Z,101424.09
2023-02-20T02:37:27.547Z,101424.13
2023-02-20T02:40:03.010Z,101413.75
2023-02-20T02:42:40.337Z,101397.28
2023-02-20T02:45:27.046Z,101391.25
2023-02-20T02:48:00.523Z,101387.78
2023-02-20T02:50:29.831Z,101398.22
2023-02-20T02:52:57.194Z,101397.38
2023-02-20T02:55:28.502Z,101399.13
2023-02-20T02:57:55.232Z,101404.31
2023-02-20T03:00:25.838Z,101416.44
2023-02-20T03:03:07.627Z,101419.97
2023-02-20T03:05:40.582Z,101415.63
2023-02-20T03:08:22.626Z,101415.69
2023-02-20T03:10:53.415Z,101407.88
2023-02-20T03:13:20.654Z,101421.75
2023-02-20T03:15:52.295Z,101417.41
2023-02-20T03:18:27.988Z,101419.16
2023-02-20T03:20:56.934Z,101419.16
2023-02-20T03:23:31.996Z,101400.97
2023-02-20T03:26:01.166Z,101395.78
2023-02-20T03:28:32.129Z,101391.47
2023-02-20T03:31:04.945Z,101389.75
2023-02-20T03:33:53.280Z,101400.16
2023-02-20T03:37:02.323Z,101388.06
2023-02-20T03:39:50.649Z,101380.25
2023-02-20T03:42:37.722Z,101386.31
2023-02-20T03:45:12.667Z,101376.84
2023-02-20T03:47:42.887Z,101371.63
2023-02-20T03:50:29.122Z,101366.44
2023-02-20T03:52:57.490Z,101373.41
2023-02-20T03:55:24.688Z,101366.44
2023-02-20T03:57:53.768Z,101345.66
2023-02-20T04:00:22.326Z,101361.25
2023-02-20T04:02:54.627Z,101354.31
2023-02-20T04:05:26.086Z,101338.72
2023-02-20T04:08:05.911Z,101330.91
2023-02-20T04:10:38.063Z,101307.56
2023-02-20T04:13:05.718Z,101314.47
2023-02-20T04:15:33.750Z,101307.56
2023-02-20T04:18:04.132Z,101308.41
2023-02-20T04:20:31.002Z,101296.25
2023-02-20T04:23:08.332Z,101297.16
2023-02-20T04:25:44.856Z,101286.75
2023-02-20T04:28:12.783Z,101294.50
2023-02-20T04:31:01.214Z,101298.84
2023-02-20T04:33:29.301Z,101306.63
2023-02-20T04:36:02.246Z,101303.16
2023-02-20T04:38:28.896Z,101280.63
2023-02-20T04:40:56.902Z,101284.09
2023-02-20T04:43:26.380Z,101262.44
2023-02-20T04:45:52.941Z,101263.28
2023-02-20T04:48:22.402Z,101251.16
2023-02-20T04:50:51.158Z,101264.19
2023-02-20T04:53:18.016Z,101258.09
2023-02-20T04:55:44.759Z,101266.75
2023-02-20T04:58:14.427Z,101272.84
2023-02-20T05:00:53.976Z,101254.63
2023-02-20T05:03:20.499Z,101246.84
2023-02-20T05:05:46.960Z,101255.50
2023-02-20T05:08:13.527Z,101253.75
2023-02-20T05:10:40.100Z,101241.63
2023-02-20T05:13:06.541Z,101232.09
2023-02-20T05:15:33.264Z,101247.72
2023-02-20T05:18:00.012Z,101222.59
2023-02-20T05:20:46.876Z,101226.94
2023-02-20T05:23:13.492Z,101233.00
2023-02-20T05:25:40.117Z,101215.72
2023-02-20T05:28:06.757Z,101220.03
2023-02-20T05:30:33.210Z,101207.91
2023-02-20T05:32:59.962Z,101207.94
2023-02-20T05:35:26.728Z,101184.53
2023-02-20T05:37:53.140Z,101169.81
2023-02-20T05:40:19.720Z,101176.72
2023-02-20T05:42:46.331Z,101176.78
2023-02-20T05:45:14.410Z,101172.41
2023-02-20T05:47:40.864Z,101168.09
2023-02-20T05:50:07.374Z,101167.22
2023-02-20T05:52:33.784Z,101174.19
2023-02-20T05:55:00.309Z,101157.72
2023-02-20T05:57:26.936Z,101150.78
2023-02-20T05:59:53.542Z,101144.72
2023-02-20T06:02:20.275Z,101159.44
2023-02-20T06:04:46.873Z,101145.56
2023-02-20T06:07:13.431Z,101155.13
2023-02-20T06:09:45.824Z,101143.84
2023-02-20T06:12:12.540Z,101142.13
2023-02-20T06:14:39.192Z,101143.00
2023-02-20T06:17:05.638Z,101144.72
2023-02-20T06:19:32.064Z,101143.00
2023-02-20T06:21:58.932Z,101146.47
2023-02-20T06:24:26.218Z,101130.84
2023-02-20T06:26:52.802Z,101132.59
2023-02-20T06:29:19.678Z,101130.84
2023-02-20T06:31:46.570Z,101136.06
2023-02-20T06:34:13.225Z,101122.19
2023-02-20T06:36:40.434Z,101124.78
2023-02-20T06:39:08.383Z,101117.88
2023-02-20T06:41:35.083Z,101122.22
2023-02-20T06:44:01.592Z,101125.69
2023-02-20T06:46:28.157Z,101132.63
2023-02-20T06:48:55.986Z,101132.63
2023-02-20T06:51:32.275Z,101135.25
2023-02-20T06:53:59.509Z,101132.66
2023-02-20T06:56:28.379Z,101129.19
2023-02-20T06:58:55.052Z,101138.72
2023-02-20T07:01:22.904Z,101136.13
2023-02-20T07:03:49.967Z,101138.75
2023-02-20T07:06:16.987Z,101146.56
2023-02-20T07:08:44.095Z,101148.28
2023-02-20T07:11:10.747Z,101141.34
2023-02-20T07:13:37.186Z,101137.00
2023-02-20T07:16:03.892Z,101135.28
2023-02-20T07:18:30.434Z,101138.75
2023-02-20T07:20:56.949Z,101134.44
2023-02-20T07:23:23.704Z,101139.63
2023-02-20T07:25:50.406Z,101136.16
2023-02-20T07:28:18.437Z,101131.81
2023-02-20T07:30:45.537Z,101117.06
2023-02-20T07:33:15.331Z,101124.03
2023-02-20T07:35:41.847Z,101125.75
2023-02-20T07:38:08.644Z,101111.88
2023-02-20T07:40:39.931Z,101106.66
2023-02-20T07:43:06.732Z,101100.59
2023-02-20T07:45:44.824Z,101106.66
2023-02-20T07:48:11.412Z,101092.75
2023-02-20T07:50:37.827Z,101093.59
2023-02-20T07:53:04.350Z,101064.97
2023-02-20T07:55:30.840Z,101083.19
2023-02-20T07:57:58.415Z,101080.59
2023-02-20T08:00:26.361Z,101079.75
2023-02-20T08:02:53.281Z,101078.88
2023-02-20T08:05:20.090Z,101070.19
2023-02-20T08:07:47.152Z,101066.69
2023-02-20T08:10:14.425Z,101074.53
2023-02-20T08:12:41.034Z,101065.81
2023-02-20T08:15:07.749Z,101064.94
2023-02-20T08:17:45.643Z,101056.25
2023-02-20T08:20:13.323Z,101048.44
2023-02-20T08:22:41.838Z,101051.03
2023-02-20T08:25:08.786Z,101050.16
2023-02-20T08:27:38.375Z,101051.03
2023-02-20T08:30:07.986Z,101046.69
2023-02-20T08:32:34.650Z,101036.22
2023-02-20T08:35:01.156Z,101042.31
2023-02-20T08:37:27.562Z,101031.88
2023-02-20T08:39:54.006Z,101037.06
2023-02-20T08:42:20.472Z,101025.78
2023-02-20T08:44:46.968Z,101018.78
2023-02-20T08:47:13.484Z,101019.69
2023-02-20T08:49:39.952Z,101017.06
2023-02-20T08:52:06.757Z,101014.44
2023-02-20T08:54:33.298Z,101012.72
2023-02-20T08:56:59.892Z,100999.66
2023-02-20T08:59:26.605Z,101009.19
2023-02-20T09:01:53.030Z,100984.84
2023-02-20T09:04:21.301Z,100986.56
2023-02-20T09:06:47.832Z,100977.88
2023-02-20T09:09:14.739Z,100987.41
2023-02-20T09:11:41.365Z,100983.03
2023-02-20T09:14:09.540Z,100985.66
2023-02-20T09:16:36.121Z,100986.50
2023-02-20T09:19:02.673Z,100989.09
2023-02-20T09:21:29.442Z,100972.56
2023-02-20T09:23:55.991Z,100984.75
2023-02-20T09:26:22.476Z,100973.41
2023-02-20T09:28:49.087Z,100969.03
2023-02-20T09:31:15.554Z,100986.38
2023-02-20T09:33:50.912Z,100966.38
2023-02-20T09:36:18.153Z,100955.03
2023-02-20T09:38:44.829Z,100960.25
2023-02-20T09:41:18.402Z,100962.81
2023-02-20T09:43:44.921Z,100953.25
2023-02-20T09:46:14.894Z,100953.25
2023-02-20T09:48:55.289Z,100946.22
2023-02-20T09:51:24.446Z,100956.63
2023-02-20T09:53:53.839Z,100960.09
2023-02-20T09:56:22.272Z,100969.66
2023-02-20T09:59:09.057Z,100960.94
2023-02-20T10:01:38.173Z,100963.50
2023-02-20T10:04:11.976Z,100960.03
2023-02-20T10:06:38.516Z,100965.25
2023-02-20T10:09:06.593Z,100964.34
2023-02-20T10:11:48.789Z,100963.44
2023-02-20T10:14:18.251Z,100980.84
2023-02-20T10:16:52.346Z,100979.94
2023-02-20T10:19:24.960Z,100964.25
2023-02-20T10:22:02.550Z,100966.84
2023-02-20T10:24:31.946Z,100969.44
2023-02-20T10:27:04.810Z,100965.91
2023-02-20T10:29:34.816Z,100960.69
2023-02-20T10:32:04.470Z,100958.06
2023-02-20T10:34:37.917Z,100964.09
2023-02-20T10:37:15.540Z,100964.09
2023-02-20T10:39:48.534Z,100957.97
2023-02-20T10:42:28.617Z,100954.44
2023-02-20T10:44:55.292Z,100957.00
2023-02-20T10:47:36.506Z,100958.72
2023-02-20T10:50:07.942Z,100964.75
2023-02-20T10:52:37.261Z,100938.59
2023-02-20T10:55:21.128Z,100949.88
2023-02-20T10:57:49.880Z,100931.53
2023-02-20T11:00:20.373Z,100946.28
2023-02-20T11:02:57.559Z,100936.69
2023-02-20T11:05:26.599Z,100929.66
2023-02-20T11:07:53.004Z,100926.13
2023-02-20T11:10:19.673Z,100931.31
2023-02-20T11:12:54.753Z,100912.09
2023-02-20T11:15:24.975Z,100923.38
2023-02-20T11:17:52.932Z,100928.53
2023-02-20T11:20:32.267Z,100907.59
2023-02-20T11:23:05.381Z,100901.47
2023-02-20T11:25:35.867Z,100889.19
2023-02-20T11:28:08.515Z,100910.94
2023-02-20T11:30:36.382Z,100901.28
2023-02-20T11:33:12.359Z,100889.91
2023-02-20T11:35:39.609Z,100887.25
2023-02-20T11:38:12.150Z,100902.03
2023-02-20T11:40:38.618Z,100898.50
2023-02-20T11:43:15.833Z,100889.78
2023-02-20T11:45:42.390Z,100887.16
2023-02-20T11:48:11.307Z,100897.56
2023-02-20T11:50:42.456Z,100887.97
2023-02-20T11:53:20.070Z,100891.41
2023-02-20T11:55:58.652Z,100883.53
2023-02-20T11:58:28.017Z,100882.63
2023-02-20T12:00:55.322Z,100874.78
2023-02-20T12:03:26.416Z,100869.53
2023-02-20T12:05:52.963Z,100862.56
2023-02-20T12:08:31.022Z,100863.44
2023-02-20T12:11:16.903Z,100882.59
2023-02-20T12:13:44.556Z,100870.38
2023-02-20T12:16:14.432Z,100887.78
2023-02-20T12:18:57.639Z,100860.72
2023-02-20T12:21:47.065Z,100860.69
2023-02-20T12:24:22.750Z,100856.34
2023-02-20T12:26:49.204Z,100865.94
2023-02-20T12:29:15.702Z,100851.06
2023-02-20T12:31:51.712Z,100831.84
2023-02-20T12:34:36.821Z,100842.28
2023-02-20T12:37:03.324Z,100835.25
2023-02-20T12:39:32.754Z,100847.47
2023-02-20T12:42:17.700Z,100834.38
2023-02-20T12:45:13.958Z,100843.09
2023-02-20T12:47:44.023Z,100832.63
2023-02-20T12:50:10.528Z,100836.97
2023-02-20T12:52:37.028Z,100843.09
2023-02-20T12:55:06.557Z,100817.84
2023-02-20T12:57:44.971Z,100827.38
2023-02-20T13:00:22.443Z,100825.66
2023-02-20T13:02:51.282Z,100833.50
2023-02-20T13:05:20.303Z,100829.13
2023-02-20T13:07:55.594Z,100841.31
2023-02-20T13:10:23.973Z,100838.72
2023-02-20T13:12:51.318Z,100832.63
2023-02-20T13:15:32.867Z,100829.13
2023-02-20T13:18:20.582Z,100834.38
2023-02-20T13:20:49.834Z,100853.59
2023-02-20T13:23:16.212Z,100839.66
2023-02-20T13:25:46.285Z,100822.22
2023-02-20T13:28:12.671Z,100847.53
2023-02-20T13:30:40.019Z,100846.66
2023-02-20T13:33:25.430Z,100845.81
2023-02-20T13:35:57.430Z,100830.97
2023-02-20T13:38:25.374Z,100819.69
2023-02-20T13:40:55.023Z,100838.03
2023-02-20T13:43:26.335Z,100836.25
2023-02-20T13:46:10.433Z,100851.09
2023-02-20T13:48:37.412Z,100828.41
2023-02-20T13:51:19.910Z,100848.47
2023-02-20T13:54:05.390Z,100810.94
2023-02-20T13:56:43.870Z,100834.47
2023-02-20T13:59:12.252Z,100847.56
2023-02-20T14:01:58.407Z,100845.78
2023-02-20T14:04:26.599Z,100844.03
2023-02-20T14:06:58.345Z,100851.03
2023-02-20T14:09:31.134Z,100849.28
2023-02-20T14:12:10.980Z,100853.63
2023-02-20T14:14:41.215Z,100851.03
2023-02-20T14:17:15.821Z,100835.31
2023-02-20T14:19:43.820Z,100836.19
2023-02-20T14:22:13.895Z,100831.81
2023-02-20T14:24:40.326Z,100836.19
2023-02-20T14:27:24.828Z,100836.19
2023-02-20T14:30:03.784Z,100843.19
2023-02-20T14:32:30.561Z,100822.28
2023-02-20T14:35:05.387Z,100839.75
2023-02-20T14:37:47.664Z,100811.84
2023-02-20T14:40:20.009Z,100819.72
2023-02-20T14:42:46.941Z,100827.56
2023-02-20T14:45:19.414Z,100820.56
2023-02-20T14:47:51.850Z,100824.06
2023-02-20T14:50:21.375Z,100822.34
2023-02-20T14:52:59.997Z,100832.00
2023-02-20T14:55:26.960Z,100837.22
2023-02-20T14:57:53.649Z,100841.63
2023-02-20T15:00:23.746Z,100850.41
2023-02-20T15:02:55.219Z,100858.31
2023-02-20T15:05:30.527Z,100834.78
2023-02-20T15:08:01.041Z,100845.34
2023-02-20T15:10:36.239Z,100836.63
2023-02-20T15:13:08.476Z,100837.53
2023-02-20T15:15:36.599Z,100840.16
2023-02-20T15:18:12.145Z,100833.22
2023-02-20T15:20:40.157Z,100851.53
2023-02-20T15:23:15.526Z,100857.66
2023-02-20T15:25:42.734Z,100843.75
2023-02-20T15:28:18.141Z,100864.66
2023-02-20T15:31:03.824Z,100852.50
2023-02-20T15:33:31.568Z,100856.88
2023-02-20T15:36:01.208Z,100843.81
2023-02-20T15:38:32.844Z,100844.72
2023-02-20T15:41:00.242Z,100848.22
2023-02-20T15:43:45.275Z,100865.66
2023-02-20T15:46:15.084Z,100843.00
2023-02-20T15:48:41.921Z,100840.44
2023-02-20T15:51:09.714Z,100850.06
2023-02-20T15:53:36.630Z,100847.44
2023-02-20T15:56:03.667Z,100845.72
2023-02-20T15:58:36.250Z,100846.59
2023-02-20T16:01:03.016Z,100853.59
2023-02-20T16:03:33.918Z,100850.97
2023-02-20T16:06:05.371Z,100849.28
2023-02-20T16:08:32.021Z,100849.31
2023-02-20T16:10:58.552Z,100851.94
2023-02-20T16:13:28.235Z,100850.19
2023-02-20T16:15:55.219Z,100848.47
2023-02-20T16:18:23.797Z,100861.53
2023-02-20T16:20:53.291Z,100860.72
2023-02-20T16:23:19.865Z,100861.59
2023-02-20T16:25:46.705Z,100851.16
2023-02-20T16:28:16.279Z,100848.59
2023-02-20T16:30:45.462Z,100854.69
2023-02-20T16:33:19.581Z,100851.22
2023-02-20T16:35:47.188Z,100847.75
2023-02-20T16:38:13.690Z,100870.41
2023-02-20T16:40:40.200Z,100859.97
2023-02-20T16:43:07.453Z,100846.91
2023-02-20T16:45:34.442Z,100850.38
2023-02-20T16:48:00.920Z,100862.59
2023-02-20T16:50:29.974Z,100856.50
2023-02-20T16:52:57.884Z,100854.78
2023-02-20T16:55:26.347Z,100849.56
2023-02-20T16:57:53.052Z,100853.94
2023-02-20T17:00:21.032Z,100877.47
2023-02-20T17:02:47.531Z,100869.66
2023-02-20T17:05:14.863Z,100876.63
2023-02-20T17:07:41.450Z,100872.25
2023-02-20T17:10:09.066Z,100881.88
2023-02-20T17:12:36.226Z,100891.47
2023-02-20T17:15:03.586Z,100887.13
2023-02-20T17:17:30.499Z,100877.56
2023-02-20T17:19:57.068Z,100890.63
2023-02-20T17:22:24.063Z,100863.66
2023-02-20T17:24:50.889Z,100890.66
2023-02-20T17:27:17.535Z,100896.81
2023-02-20T17:29:44.691Z,100891.59
2023-02-20T17:32:11.515Z,100901.19
2023-02-20T17:34:38.111Z,100896.81
2023-02-20T17:37:05.707Z,100895.94
2023-02-20T17:39:32.139Z,100895.94
2023-02-20T17:41:58.822Z,100902.91
2023-02-20T17:44:27.485Z,100896.81
2023-02-20T17:46:55.254Z,100891.59
2023-02-20T17:49:22.028Z,100901.19
2023-02-20T17:51:50.565Z,100902.91
2023-02-20T17:54:19.753Z,100903.81
2023-02-20T17:56:46.548Z,100909.03
2023-02-20T17:59:13.016Z,100909.03
2023-02-20T18:01:42.626Z,100904.66
2023-02-20T18:04:09.946Z,100910.75
2023-02-20T18:06:37.231Z,100898.59
2023-02-20T18:09:04.501Z,100906.44
2023-02-20T18:11:31.084Z,100908.19
2023-02-20T18:13:57.814Z,100895.13
2023-02-20T18:16:25.653Z,100907.31
2023-02-20T18:18:52.210Z,100917.75
2023-02-20T18:21:19.649Z,100916.03
2023-02-20T18:23:46.247Z,100907.34
2023-02-20T18:26:13.399Z,100915.19
2023-02-20T18:28:40.628Z,100924.78
2023-02-20T18:31:07.423Z,100916.94
2023-02-20T18:33:34.623Z,100911.72
2023-02-20T18:36:07.985Z,100908.22
2023-02-20T18:38:35.725Z,100909.09
2023-02-20T18:41:02.249Z,100910.84
2023-02-20T18:43:28.657Z,100915.22
2023-02-20T18:45:55.283Z,100916.06
2023-02-20T18:48:21.818Z,100909.09
2023-02-20T18:50:49.741Z,100913.47
2023-02-20T18:53:16.211Z,100917.81
2023-02-20T18:55:42.693Z,100916.06
2023-02-20T18:58:09.159Z,100929.13
2023-02-20T19:00:35.764Z,100930.88
2023-02-20T19:03:03.612Z,100909.97
2023-02-20T19:05:30.111Z,100914.31
2023-02-20T19:07:56.667Z,100911.72
2023-02-20T19:10:24.589Z,100907.34
2023-02-20T19:12:51.591Z,100912.56
2023-02-20T19:15:18.482Z,100920.41
2023-02-20T19:17:45.833Z,100899.50
2023-02-20T19:20:16.830Z,100899.50
2023-02-20T19:22:43.370Z,100910.81
2023-02-20T19:25:09.951Z,100908.19
2023-02-20T19:27:36.479Z,100909.06
2023-02-20T19:30:03.183Z,100904.69
2023-02-20T19:32:30.056Z,100902.09
2023-02-20T19:34:56.573Z,100892.53
2023-02-20T19:37:25.495Z,100900.34
2023-02-20T19:39:52.270Z,100907.31
2023-02-20T19:42:19.343Z,100906.47
2023-02-20T19:44:45.741Z,100922.13
2023-02-20T19:47:13.524Z,100920.41
2023-02-20T19:49:40.029Z,100907.31
2023-02-20T19:52:06.522Z,100916.88
2023-02-20T19:54:32.975Z,100915.13
2023-02-20T19:57:01.221Z,100913.38
2023-02-20T19:59:28.702Z,100911.66
2023-02-20T20:01:57.118Z,100917.72
2023-02-20T20:04:24.847Z,100909.88
2023-02-20T20:06:51.682Z,100912.50
2023-02-20T20:09:33.790Z,100908.16
2023-02-20T20:12:02.587Z,100920.34
2023-02-20T20:14:28.998Z,100917.69
2023-02-20T20:16:55.617Z,100922.06
2023-02-20T20:19:22.106Z,100928.16
2023-02-20T20:21:49.491Z,100915.97
2023-02-20T20:24:15.956Z,100915.97
2023-02-20T20:26:42.418Z,100922.91
2023-02-20T20:29:09.012Z,100919.44
2023-02-20T20:31:37.747Z,100925.53
2023-02-20T20:34:04.936Z,100929.03
2023-02-20T20:36:31.551Z,100937.72
2023-02-20T20:38:58.000Z,100936.88
2023-02-20T20:41:25.067Z,100933.34
2023-02-20T20:43:53.000Z,100932.50
2023-02-20T20:46:19.795Z,100935.97
2023-02-20T20:48:47.070Z,100933.41
2023-02-20T20:51:15.642Z,100936.00
2023-02-20T20:53:42.370Z,100929.91
2023-02-20T20:56:09.633Z,100946.44
2023-02-20T20:58:36.370Z,100928.13
2023-02-20T21:01:03.199Z,100929.91
2023-02-20T21:03:30.046Z,100923.84
2023-02-20T21:05:56.513Z,100919.47
2023-02-20T21:08:22.960Z,100929.91
2023-02-20T21:10:49.601Z,100935.13
2023-02-20T21:13:16.064Z,100924.72
2023-02-20T21:15:42.569Z,100917.75
2023-02-20T21:18:09.229Z,100925.59
2023-02-20T21:20:36.196Z,100915.97
2023-02-20T21:23:04.723Z,100915.13
2023-02-20T21:25:31.312Z,100917.69
2023-02-20T21:27:58.425Z,100922.94
2023-02-20T21:30:26.385Z,100921.19
2023-02-20T21:32:53.026Z,100918.56
2023-02-20T21:35:20.583Z,100928.13
2023-02-20T21:37:47.518Z,100917.69
2023-02-20T21:40:15.021Z,100922.03
2023-02-20T21:43:00.257Z,100921.16
2023-02-20T21:45:26.725Z,100924.63
2023-02-20T21:47:53.123Z,100916.78
2023-02-20T21:50:19.788Z,100921.13
2023-02-20T21:52:47.354Z,100915.94
2023-02-20T21:55:14.847Z,100915.94
2023-02-20T21:57:41.616Z,100920.31
2023-02-20T22:00:08.794Z,100907.22
2023-02-20T22:02:35.944Z,100912.44
2023-02-20T22:05:02.408Z,100918.53
2023-02-20T22:07:47.448Z,100912.44
2023-02-20T22:10:32.391Z,100914.19
2023-02-20T22:13:17.253Z,100915.06
2023-02-20T22:16:02.701Z,100924.59
2023-02-20T22:18:47.808Z,100920.28
2023-02-20T22:21:37.250Z,100920.28
2023-02-20T22:24:33.782Z,100919.38
2023-02-20T22:27:23.223Z,100929.81
2023-02-20T22:30:08.348Z,100921.13
2023-02-20T22:32:53.813Z,100930.72
2023-02-20T22:35:40.974Z,100933.31
2023-02-20T22:38:26.366Z,100936.81
2023-02-20T22:41:11.372Z,100941.22
2023-02-20T22:43:56.474Z,100943.81
2023-02-20T22:46:41.902Z,100946.41
2023-02-20T22:49:27.301Z,100945.56
2023-02-20T22:52:12.582Z,100946.41
2023-02-20T22:55:04.876Z,100953.41
2023-02-20T22:57:50.659Z,100943.84
2023-02-20T23:00:35.751Z,100951.69
2023-02-20T23:03:20.904Z,100963.91
2023-02-20T23:06:17.088Z,100963.00
2023-02-20T23:09:03.568Z,100963.03
2023-02-20T23:11:50.691Z,100970.00
2023-02-20T23:14:35.610Z,100964.78
2023-02-20T23:17:34.341Z,100959.56
2023-02-20T23:20:20.843Z,100959.56
2023-02-20T23:23:05.824Z,100962.19
2023-02-20T23:25:51.106Z,100963.97
2023-02-20T23:28:37.311Z,100956.13
2023-02-20T23:31:23.276Z,100964.84
2023-02-20T23:34:08.501Z,100958.75
2023-02-20T23:36:53.529Z,100967.47
2023-02-20T23:39:38.897Z,100983.13
2023-02-20T23:42:24.142Z,100979.69
2023-02-20T23:45:09.493Z,100972.72
2023-02-20T23:47:54.711Z,100970.13
2023-02-20T23:50:39.713Z,100971.03
2023-02-20T23:53:24.729Z,100980.59
2023-02-20T23:56:09.740Z,100978.84
2023-02-20T23:58:54.992Z,100984.97
